Time;durP1;ratioP1;P1;durP2;ratioP2;P2;SDS_P1;SDS_P2;PMS_P1;PMS_P2;Temp;Humidity;BMP_temperature;BMP_pressure;BME280_temperature;BME280_humidity;BME280_pressure;Samples;Min_cycle;Max_cycle;Signal;HPM_P1;HPM_P2
2021/08/07 00:01:53;;;;;;;5.47;2.35;;;;;;;;;;6236858;28;20469;-78
2021/08/07 00:04:55;;;;;;;4.82;2.20;;;;;;;;;;6218609;28;20569;-78
2021/08/07 00:07:57;;;;;;;4.78;2.05;;;;;;;;;;6220545;28;20128;-78
2021/08/07 00:10:59;;;;;;;3.28;2.10;;;;;;;;;;6236155;28;20045;-78
2021/08/07 00:14:00;;;;;;;3.88;1.95;;;;;;;;;;6219077;28;20046;-77
2021/08/07 00:17:02;;;;;;;3.90;2.20;;;;;;;;;;6219429;28;20041;-78
2021/08/07 00:20:05;;;;;;;4.28;2.20;;;;;;;;;;6209178;28;20064;-77
2021/08/07 00:23:07;;;;;;;2.72;2.05;;;;;;;;;;6213252;28;20065;-78
2021/08/07 00:26:08;;;;;;;3.03;2.40;;;;;;;;;;6213034;28;20049;-77
2021/08/07 00:29:10;;;;;;;2.78;1.90;;;;;;;;;;6206956;28;20829;-78
2021/08/07 00:32:12;;;;;;;3.95;3.35;;;;;;;;;;6239066;28;20414;-78
2021/08/07 00:35:16;;;;;;;4.15;2.40;;;;;;;;;;6218192;28;20578;-78
2021/08/07 00:38:19;;;;;;;3.10;1.85;;;;;;;;;;6220191;28;20125;-78
2021/08/07 00:41:23;;;;;;;3.88;2.17;;;;;;;;;;6219301;28;20133;-78
2021/08/07 00:44:25;;;;;;;2.95;2.28;;;;;;;;;;6219160;28;20046;-78
2021/08/07 00:47:28;;;;;;;2.35;1.85;;;;;;;;;;6205599;28;20049;-78
2021/08/07 00:50:30;;;;;;;6.65;2.20;;;;;;;;;;6235389;28;20077;-78
2021/08/07 00:53:32;;;;;;;2.60;2.25;;;;;;;;;;6218103;28;20095;-78
2021/08/07 00:56:40;;;;;;;2.50;2.20;;;;;;;;;;6234702;28;20045;-78
2021/08/07 00:59:49;;;;;;;4.07;2.60;;;;;;;;;;6202844;28;20042;-78
2021/08/07 01:03:09;;;;;;;4.03;2.00;;;;;;;;;;6211217;28;20042;-78
2021/08/07 01:06:24;;;;;;;3.70;2.05;;;;;;;;;;6191698;28;20528;-79
2021/08/07 01:09:53;;;;;;;2.72;2.00;;;;;;;;;;6219271;28;20046;-78
2021/08/07 01:13:22;;;;;;;3.25;2.10;;;;;;;;;;6218430;28;20502;-77
2021/08/07 01:16:32;;;;;;;3.67;1.95;;;;;;;;;;6218300;28;20399;-77
2021/08/07 01:20:03;;;;;;;3.15;1.90;;;;;;;;;;6218188;28;20091;-77
2021/08/07 01:23:24;;;;;;;4.93;1.70;;;;;;;;;;6219175;28;20511;-78
2021/08/07 01:26:57;;;;;;;3.63;1.90;;;;;;;;;;6220545;28;20058;-78
2021/08/07 01:30:00;;;;;;;4.82;2.20;;;;;;;;;;6231128;28;20038;-78
2021/08/07 01:33:04;;;;;;;2.30;2.05;;;;;;;;;;6240050;28;20050;-77
2021/08/07 01:36:13;;;;;;;5.03;2.13;;;;;;;;;;6221846;28;20061;-77
2021/08/07 01:39:18;;;;;;;4.43;1.77;;;;;;;;;;6220524;28;20049;-78
2021/08/07 01:42:23;;;;;;;5.03;2.00;;;;;;;;;;6224763;28;20068;-77
2021/08/07 01:45:24;;;;;;;4.47;2.00;;;;;;;;;;6237089;28;20097;-78
2021/08/07 01:48:42;;;;;;;3.72;1.92;;;;;;;;;;6224517;28;20068;-78
2021/08/07 01:52:08;;;;;;;3.53;2.05;;;;;;;;;;6221647;28;20521;-77
2021/08/07 01:55:31;;;;;;;4.07;1.90;;;;;;;;;;6207518;28;20041;-77
2021/08/07 01:59:04;;;;;;;2.83;2.05;;;;;;;;;;6221468;28;20042;-77
2021/08/07 02:02:09;;;;;;;;;;;;;;;;;;6223091;28;20631;-77
2021/08/07 02:05:19;;;;;;;3.88;1.98;;;;;;;;;;6237407;28;20385;-78
2021/08/07 02:08:26;;;;;;;3.72;2.00;;;;;;;;;;6222515;28;20503;-77
2021/08/07 02:11:32;;;;;;;3.28;1.85;;;;;;;;;;6238570;28;20560;-77
2021/08/07 02:14:40;;;;;;;3.10;2.10;;;;;;;;;;6202763;28;20042;-77
2021/08/07 02:17:48;;;;;;;3.58;2.20;;;;;;;;;;6198013;28;20505;-77
2021/08/07 02:20:55;;;;;;;2.22;1.90;;;;;;;;;;6220748;28;20041;-77
2021/08/07 02:23:59;;;;;;;4.22;2.20;;;;;;;;;;6221534;28;20121;-77
2021/08/07 02:27:02;;;;;;;3.10;2.05;;;;;;;;;;6222344;28;20076;-77
2021/08/07 02:30:07;;;;;;;4.20;1.98;;;;;;;;;;6238335;28;20581;-77
2021/08/07 02:33:17;;;;;;;6.15;2.30;;;;;;;;;;6222073;28;20048;-77
2021/08/07 02:36:21;;;;;;;2.50;1.80;;;;;;;;;;6205419;28;20151;-77
2021/08/07 02:39:31;;;;;;;2.28;1.90;;;;;;;;;;6212399;28;20057;-77
2021/08/07 02:42:34;;;;;;;3.97;2.30;;;;;;;;;;6213480;28;20046;-77
2021/08/07 02:45:37;;;;;;;3.03;2.28;;;;;;;;;;6228801;28;20042;-77
2021/08/07 02:48:40;;;;;;;2.30;1.83;;;;;;;;;;6238968;28;20041;-77
2021/08/07 02:51:42;;;;;;;2.25;2.00;;;;;;;;;;6240996;28;20044;-77
2021/08/07 02:54:45;;;;;;;2.90;2.10;;;;;;;;;;6221490;28;20775;-77
2021/08/07 02:57:50;;;;;;;2.65;1.98;;;;;;;;;;6221635;28;20520;-77
2021/08/07 03:00:53;;;;;;;4.10;2.20;;;;;;;;;;6228174;28;20048;-78
2021/08/07 03:03:58;;;;;;;3.92;2.00;;;;;;;;;;6194540;28;20060;-77
2021/08/07 03:07:00;;;;;;;2.95;2.13;;;;;;;;;;6194702;28;20054;-77
2021/08/07 03:10:07;;;;;;;3.72;2.00;;;;;;;;;;6195126;28;20049;-77
2021/08/07 03:13:09;;;;;;;4.20;2.20;;;;;;;;;;6194598;28;20048;-78
2021/08/07 03:16:11;;;;;;;2.17;1.83;;;;;;;;;;6233521;28;20191;-77
2021/08/07 03:19:17;;;;;;;2.30;1.90;;;;;;;;;;6235331;28;20049;-78
2021/08/07 03:22:22;;;;;;;6.25;2.25;;;;;;;;;;6236527;28;20092;-78
2021/08/07 03:25:25;;;;;;;3.15;1.92;;;;;;;;;;6233130;28;20045;-79
2021/08/07 03:28:27;;;;;;;5.13;2.60;;;;;;;;;;6249682;28;20052;-79
2021/08/07 03:31:28;;;;;;;4.97;3.10;;;;;;;;;;6232600;28;20038;-79
2021/08/07 03:34:31;;;;;;;4.45;3.22;;;;;;;;;;6230326;28;20060;-78
2021/08/07 03:37:34;;;;;;;3.40;2.90;;;;;;;;;;6232377;28;20038;-79
2021/08/07 03:40:35;;;;;;;4.05;3.10;;;;;;;;;;6207214;28;20060;-79
2021/08/07 03:43:44;;;;;;;4.72;3.70;;;;;;;;;;6223599;28;20042;-78
2021/08/07 03:46:46;;;;;;;4.65;2.40;;;;;;;;;;6210473;28;20116;-78
2021/08/07 03:49:49;;;;;;;2.67;2.30;;;;;;;;;;6247012;28;20052;-79
2021/08/07 03:52:53;;;;;;;2.85;1.80;;;;;;;;;;6231364;28;20061;-79
2021/08/07 03:55:56;;;;;;;2.55;1.85;;;;;;;;;;6206891;28;20162;-79
2021/08/07 03:58:58;;;;;;;3.00;2.10;;;;;;;;;;6222114;28;20048;-79
2021/08/07 04:02:01;;;;;;;;;;;;;;;;;;6215969;28;24614;-79
2021/08/07 04:05:06;;;;;;;3.30;2.25;;;;;;;;;;6206489;28;19944;-79
2021/08/07 04:08:09;;;;;;;2.70;2.28;;;;;;;;;;6233562;28;20125;-79
2021/08/07 04:11:13;;;;;;;3.40;1.98;;;;;;;;;;6220791;28;20045;-78
2021/08/07 04:14:24;;;;;;;5.20;2.28;;;;;;;;;;6207214;28;20113;-77
2021/08/07 04:17:29;;;;;;;5.05;2.33;;;;;;;;;;6186357;28;20046;-79
2021/08/07 04:20:31;;;;;;;4.90;2.20;;;;;;;;;;6205163;28;20137;-80
2021/08/07 04:23:37;;;;;;;3.38;2.10;;;;;;;;;;6234786;28;20045;-78
2021/08/07 04:26:42;;;;;;;3.10;2.30;;;;;;;;;;6256224;28;20056;-77
2021/08/07 04:29:48;;;;;;;2.97;2.00;;;;;;;;;;6258345;28;20045;-79
2021/08/07 04:32:51;;;;;;;2.65;2.38;;;;;;;;;;6234036;28;20517;-80
2021/08/07 04:35:53;;;;;;;2.47;2.13;;;;;;;;;;6210878;28;20042;-79
2021/08/07 04:38:58;;;;;;;4.25;2.22;;;;;;;;;;6221223;28;20118;-79
2021/08/07 04:42:02;;;;;;;2.70;2.20;;;;;;;;;;6222955;28;20050;-79
2021/08/07 04:45:06;;;;;;;4.20;2.40;;;;;;;;;;6220980;28;20116;-79
2021/08/07 04:48:08;;;;;;;2.47;2.23;;;;;;;;;;6225185;28;20041;-79
2021/08/07 04:51:23;;;;;;;3.33;2.10;;;;;;;;;;6209978;28;20049;-79
2021/08/07 04:54:25;;;;;;;3.28;2.33;;;;;;;;;;6221670;28;20046;-78
2021/08/07 04:57:28;;;;;;;2.85;2.40;;;;;;;;;;6208508;28;20052;-79
2021/08/07 05:00:32;;;;;;;2.10;1.90;;;;;;;;;;6189488;28;20082;-79
2021/08/07 05:03:37;;;;;;;4.15;2.20;;;;;;;;;;6224640;28;20046;-78
2021/08/07 05:06:46;;;;;;;2.33;1.95;;;;;;;;;;6211025;28;20101;-79
2021/08/07 05:09:50;;;;;;;4.57;1.80;;;;;;;;;;6229241;28;20057;-78
2021/08/07 05:12:55;;;;;;;2.30;2.08;;;;;;;;;;6210712;28;20130;-79
2021/08/07 05:15:57;;;;;;;4.17;2.30;;;;;;;;;;6228570;28;20045;-79
2021/08/07 05:19:00;;;;;;;2.95;1.90;;;;;;;;;;6231705;28;20041;-79
2021/08/07 05:22:04;;;;;;;2.20;2.00;;;;;;;;;;6251468;28;20045;-78
2021/08/07 05:25:08;;;;;;;4.40;2.03;;;;;;;;;;6213327;28;20056;-79
2021/08/07 05:28:10;;;;;;;2.55;2.10;;;;;;;;;;6230055;28;20050;-79
2021/08/07 05:31:15;;;;;;;3.22;1.92;;;;;;;;;;6233932;28;20069;-79
2021/08/07 05:34:18;;;;;;;7.63;2.13;;;;;;;;;;6210190;28;20042;-79
2021/08/07 05:37:20;;;;;;;4.53;2.03;;;;;;;;;;6213692;28;20034;-79
2021/08/07 05:40:22;;;;;;;2.42;1.90;;;;;;;;;;6227553;28;20434;-79
2021/08/07 05:43:28;;;;;;;2.50;2.00;;;;;;;;;;6227803;28;20124;-79
2021/08/07 05:46:31;;;;;;;9.60;5.30;;;;;;;;;;6251572;28;20045;-79
2021/08/07 05:49:35;;;;;;;6.50;3.28;;;;;;;;;;6231269;28;20046;-79
2021/08/07 05:52:37;;;;;;;2.83;2.13;;;;;;;;;;6227187;28;20578;-79
2021/08/07 05:55:39;;;;;;;3.65;1.90;;;;;;;;;;6235226;28;20108;-79
2021/08/07 05:58:41;;;;;;;5.05;2.67;;;;;;;;;;6235814;28;20072;-79
2021/08/07 06:01:43;;;;;;;2.03;1.70;;;;;;;;;;6228361;28;20049;-79
2021/08/07 06:04:45;;;;;;;3.28;1.80;;;;;;;;;;6213994;28;20640;-79
2021/08/07 06:07:50;;;;;;;1.92;1.73;;;;;;;;;;6227110;28;20046;-80
2021/08/07 06:10:54;;;;;;;2.35;1.77;;;;;;;;;;6225389;28;20050;-80
2021/08/07 06:13:56;;;;;;;3.78;2.00;;;;;;;;;;6229439;28;20077;-80
2021/08/07 06:16:59;;;;;;;;;;;;;;;;;;6231211;28;20054;-79
2021/08/07 06:20:01;;;;;;;2.55;1.98;;;;;;;;;;6231738;28;19936;-78
2021/08/07 06:23:04;;;;;;;2.70;1.55;;;;;;;;;;6217054;28;20638;-78
2021/08/07 06:26:07;;;;;;;2.60;1.52;;;;;;;;;;6214175;28;20043;-79
2021/08/07 06:29:11;;;;;;;4.00;1.92;;;;;;;;;;6201832;28;20052;-79
2021/08/07 06:32:13;;;;;;;4.85;2.13;;;;;;;;;;6196124;28;20054;-79
2021/08/07 06:35:15;;;;;;;3.38;1.83;;;;;;;;;;6245699;28;20045;-80
2021/08/07 06:38:17;;;;;;;2.42;1.63;;;;;;;;;;6249335;28;20067;-79
2021/08/07 06:41:18;;;;;;;3.60;1.60;;;;;;;;;;6233416;28;20046;-80
2021/08/07 06:44:39;;;;;;;2.42;1.90;;;;;;;;;;6218297;28;20092;-80
2021/08/07 06:47:40;;;;;;;1.95;1.70;;;;;;;;;;6240004;28;20041;-80
2021/08/07 06:50:44;;;;;;;2.97;1.60;;;;;;;;;;6219077;28;20084;-80
2021/08/07 06:53:53;;;;;;;1.95;1.60;;;;;;;;;;6226153;28;20045;-81
2021/08/07 06:56:55;;;;;;;3.58;1.42;;;;;;;;;;6236510;28;20503;-80
2021/08/07 07:00:01;;;;;;;2.33;1.50;;;;;;;;;;6251632;28;20046;-81
2021/08/07 07:03:05;;;;;;;2.65;1.30;;;;;;;;;;6218894;28;20047;-79
2021/08/07 07:06:07;;;;;;;2.78;1.08;;;;;;;;;;6233961;28;20056;-80
2021/08/07 07:09:10;;;;;;;1.90;1.30;;;;;;;;;;6231228;28;20045;-80
2021/08/07 07:12:13;;;;;;;2.45;1.25;;;;;;;;;;6229097;28;20041;-80
2021/08/07 07:15:17;;;;;;;1.25;1.00;;;;;;;;;;6213402;28;20049;-79
2021/08/07 07:18:19;;;;;;;2.15;1.30;;;;;;;;;;6205574;28;20057;-80
2021/08/07 07:21:20;;;;;;;2.72;1.10;;;;;;;;;;6212771;28;20494;-80
2021/08/07 07:24:24;;;;;;;1.65;1.00;;;;;;;;;;6234799;28;20034;-79
2021/08/07 07:27:26;;;;;;;2.17;0.90;;;;;;;;;;6245130;28;20145;-79
2021/08/07 07:30:30;;;;;;;2.63;1.02;;;;;;;;;;6215371;28;20038;-79
2021/08/07 07:33:32;;;;;;;4.47;1.00;;;;;;;;;;6202980;28;20472;-78
2021/08/07 07:36:34;;;;;;;1.90;1.35;;;;;;;;;;6225022;28;20046;-79
2021/08/07 07:39:36;;;;;;;2.30;1.00;;;;;;;;;;6246218;28;20041;-79
2021/08/07 07:42:38;;;;;;;2.05;1.20;;;;;;;;;;6247570;28;20056;-79
2021/08/07 07:45:40;;;;;;;2.20;0.93;;;;;;;;;;6218114;28;20041;-80
2021/08/07 07:48:42;;;;;;;1.20;0.93;;;;;;;;;;6212228;28;20034;-80
2021/08/07 07:51:46;;;;;;;1.75;1.05;;;;;;;;;;6205201;28;20054;-79
2021/08/07 07:54:48;;;;;;;1.57;1.20;;;;;;;;;;6227142;28;20142;-79
2021/08/07 07:57:49;;;;;;;1.27;1.05;;;;;;;;;;6208041;28;20042;-80
2021/08/07 08:00:54;;;;;;;4.45;1.40;;;;;;;;;;6226910;28;20080;-81
2021/08/07 08:03:56;;;;;;;2.67;1.10;;;;;;;;;;6228849;28;20052;-80
2021/08/07 08:07:00;;;;;;;3.42;1.30;;;;;;;;;;6227020;28;20069;-79
2021/08/07 08:10:03;;;;;;;2.47;1.40;;;;;;;;;;6205249;28;20086;-81
2021/08/07 08:13:05;;;;;;;1.70;1.20;;;;;;;;;;6222103;28;20050;-81
2021/08/07 08:16:07;;;;;;;2.42;1.05;;;;;;;;;;6220217;28;20063;-81
2021/08/07 08:19:11;;;;;;;3.08;1.27;;;;;;;;;;6205780;28;20042;-81
2021/08/07 08:22:13;;;;;;;1.70;1.10;;;;;;;;;;6221469;28;20049;-81
2021/08/07 08:25:14;;;;;;;2.17;1.20;;;;;;;;;;6220172;28;20053;-81
2021/08/07 08:28:17;;;;;;;3.60;1.10;;;;;;;;;;6237517;28;20088;-81
2021/08/07 08:31:19;;;;;;;4.00;1.30;;;;;;;;;;6214529;28;20085;-81
2021/08/07 08:34:21;;;;;;;3.33;1.75;;;;;;;;;;6180373;28;20052;-80
2021/08/07 08:37:24;;;;;;;2.13;0.90;;;;;;;;;;6221774;28;20635;-80
2021/08/07 08:40:26;;;;;;;;;;;;;;;;;;6207169;28;20042;-79
2021/08/07 08:43:29;;;;;;;2.47;0.90;;;;;;;;;;6222607;28;19976;-82
2021/08/07 08:46:32;;;;;;;5.83;2.83;;;;;;;;;;6214017;28;20045;-81
2021/08/07 08:49:34;;;;;;;7.28;2.47;;;;;;;;;;6213078;28;20461;-81
2021/08/07 08:52:38;;;;;;;4.20;2.00;;;;;;;;;;6223132;28;20101;-81
2021/08/07 08:55:41;;;;;;;5.22;2.65;;;;;;;;;;6219286;28;20050;-82
2021/08/07 08:58:45;;;;;;;4.75;2.17;;;;;;;;;;6208378;28;20455;-83
2021/08/07 09:01:48;;;;;;;3.90;2.30;;;;;;;;;;6206043;28;20042;-82
2021/08/07 09:04:51;;;;;;;3.22;1.20;;;;;;;;;;6247121;28;20046;-82
2021/08/07 09:07:53;;;;;;;2.75;1.10;;;;;;;;;;6216549;28;20045;-83
2021/08/07 09:11:19;;;;;;;3.58;1.50;;;;;;;;;;6251979;28;20074;-83
2021/08/07 09:14:30;;;;;;;2.65;1.35;;;;;;;;;;6233664;28;20115;-82
2021/08/07 09:17:37;;;;;;;2.28;1.25;;;;;;;;;;6236348;28;20116;-82
2021/08/07 09:20:42;;;;;;;3.30;2.10;;;;;;;;;;6224418;28;20101;-82
2021/08/07 09:23:45;;;;;;;5.25;1.90;;;;;;;;;;6227940;28;20054;-82
2021/08/07 09:27:02;;;;;;;4.35;1.80;;;;;;;;;;6227342;28;20061;-82
2021/08/07 09:30:25;;;;;;;4.03;1.30;;;;;;;;;;6239239;28;20060;-83
2021/08/07 09:33:34;;;;;;;6.05;2.63;;;;;;;;;;6235999;28;20044;-82
2021/08/07 09:36:46;;;;;;;3.88;1.55;;;;;;;;;;6212854;28;20053;-81
2021/08/07 09:39:49;;;;;;;3.90;1.30;;;;;;;;;;6187835;28;20057;-82
2021/08/07 09:42:58;;;;;;;4.15;1.10;;;;;;;;;;6196395;28;20077;-82
2021/08/07 09:46:12;;;;;;;2.67;1.20;;;;;;;;;;6225582;28;20042;-82
2021/08/07 09:49:38;;;;;;;2.03;0.95;;;;;;;;;;6194174;28;20049;-82
2021/08/07 09:52:43;;;;;;;3.03;1.02;;;;;;;;;;6217432;28;20046;-80
2021/08/07 09:56:03;;;;;;;3.63;1.20;;;;;;;;;;6233980;28;20048;-80
2021/08/07 09:59:15;;;;;;;2.60;1.20;;;;;;;;;;6226833;28;20041;-80
2021/08/07 10:02:37;;;;;;;2.10;1.20;;;;;;;;;;6199244;28;20101;-80
2021/08/07 10:05:41;;;;;;;3.45;1.58;;;;;;;;;;6221954;28;20045;-80
2021/08/07 10:08:48;;;;;;;2.35;1.00;;;;;;;;;;6222493;28;20120;-80
2021/08/07 10:12:00;;;;;;;4.78;1.52;;;;;;;;;;6214379;28;20131;-80
2021/08/07 10:15:03;;;;;;;4.85;1.23;;;;;;;;;;6221092;28;20037;-79
2021/08/07 10:18:05;;;;;;;3.42;1.10;;;;;;;;;;6220699;28;20446;-79
2021/08/07 10:21:07;;;;;;;3.90;1.85;;;;;;;;;;6216307;28;20102;-79
2021/08/07 10:24:11;;;;;;;3.08;1.10;;;;;;;;;;6216206;28;20045;-79
2021/08/07 10:27:13;;;;;;;;;;;;;;;;;;6200122;28;20176;-79
2021/08/07 10:30:16;;;;;;;1.93;1.13;;;;;;;;;;6232917;28;19929;-79
2021/08/07 10:33:25;;;;;;;2.05;0.90;;;;;;;;;;6235358;28;20436;-78
2021/08/07 10:36:28;;;;;;;3.50;1.20;;;;;;;;;;6214879;28;20061;-79
2021/08/07 10:39:33;;;;;;;2.42;1.05;;;;;;;;;;6233953;28;20053;-80
2021/08/07 10:42:36;;;;;;;2.47;1.05;;;;;;;;;;6235767;28;20103;-80
2021/08/07 10:45:42;;;;;;;1.98;0.85;;;;;;;;;;6218275;28;20045;-79
2021/08/07 10:48:46;;;;;;;4.45;1.20;;;;;;;;;;6222704;28;20041;-82
2021/08/07 10:51:51;;;;;;;2.05;1.35;;;;;;;;;;6209067;28;20046;-82
2021/08/07 10:54:55;;;;;;;3.58;1.35;;;;;;;;;;6248747;28;20108;-83
2021/08/07 10:57:57;;;;;;;2.60;1.00;;;;;;;;;;6251514;28;20045;-83
2021/08/07 11:01:26;;;;;;;2.63;1.33;;;;;;;;;;6248931;28;20056;-82
2021/08/07 11:04:47;;;;;;;2.78;1.20;;;;;;;;;;6254486;28;20049;-83
2021/08/07 11:08:15;;;;;;;2.47;0.95;;;;;;;;;;6216007;28;20093;-83
2021/08/07 11:11:30;;;;;;;4.20;1.00;;;;;;;;;;6231381;28;20048;-82
2021/08/07 11:14:34;;;;;;;2.30;1.02;;;;;;;;;;6250218;28;20041;-81
2021/08/07 11:17:44;;;;;;;2.03;1.00;;;;;;;;;;6238125;28;20048;-83
2021/08/07 11:20:46;;;;;;;1.65;0.95;;;;;;;;;;6238248;28;20041;-83
2021/08/07 11:23:47;;;;;;;2.30;1.23;;;;;;;;;;6256612;28;20137;-84
2021/08/07 11:26:49;;;;;;;3.40;1.13;;;;;;;;;;6239858;28;20037;-83
2021/08/07 11:30:22;;;;;;;4.40;1.10;;;;;;;;;;6239135;28;20049;-84
2021/08/07 11:33:33;;;;;;;2.85;1.00;;;;;;;;;;6239359;28;20041;-83
2021/08/07 11:36:56;;;;;;;4.75;1.15;;;;;;;;;;6246064;28;20128;-82
2021/08/07 11:40:10;;;;;;;3.00;1.20;;;;;;;;;;6240773;28;20025;-83
2021/08/07 11:43:25;;;;;;;3.85;1.30;;;;;;;;;;6237139;28;20470;-82
2021/08/07 11:46:33;;;;;;;5.68;1.40;;;;;;;;;;6236110;28;20109;-82
2021/08/07 11:49:35;;;;;;;3.33;1.20;;;;;;;;;;6221042;28;20045;-82
2021/08/07 11:52:37;;;;;;;4.05;1.20;;;;;;;;;;6234096;28;20662;-82
2021/08/07 11:55:39;;;;;;;4.32;1.27;;;;;;;;;;6218875;28;20045;-83
2021/08/07 11:58:44;;;;;;;1.63;1.20;;;;;;;;;;6231120;28;20046;-83
2021/08/07 12:01:46;;;;;;;2.53;1.02;;;;;;;;;;6243443;28;20109;-83
2021/08/07 12:05:07;;;;;;;4.07;1.10;;;;;;;;;;6244120;28;20054;-83
2021/08/07 12:08:10;;;;;;;2.58;1.15;;;;;;;;;;6228262;28;20094;-84
2021/08/07 12:11:14;;;;;;;4.25;1.13;;;;;;;;;;6221865;28;20064;-83
2021/08/07 12:14:26;;;;;;;2.58;1.25;;;;;;;;;;6229339;28;20042;-83
2021/08/07 12:17:28;;;;;;;4.32;1.10;;;;;;;;;;6229932;28;20053;-83
2021/08/07 12:20:30;;;;;;;0.95;0.93;;;;;;;;;;6226596;28;20058;-84
2021/08/07 12:23:46;;;;;;;3.08;0.95;;;;;;;;;;6245033;28;20041;-83
2021/08/07 12:26:53;;;;;;;3.03;0.93;;;;;;;;;;6230377;28;20061;-82
2021/08/07 12:29:54;;;;;;;3.50;1.20;;;;;;;;;;6229247;28;20065;-83
2021/08/07 12:33:16;;;;;;;5.57;1.20;;;;;;;;;;6230477;28;20045;-83
2021/08/07 12:36:23;;;;;;;4.97;1.30;;;;;;;;;;6228804;28;20113;-82
2021/08/07 12:39:25;;;;;;;2.55;1.13;;;;;;;;;;6220334;28;20105;-82
2021/08/07 12:42:28;;;;;;;;;;;;;;;;;;6205590;28;20416;-82
2021/08/07 12:45:30;;;;;;;3.33;1.33;;;;;;;;;;6230786;28;19921;-83
2021/08/07 12:48:51;;;;;;;2.33;1.20;;;;;;;;;;6240493;28;20050;-83
2021/08/07 12:52:01;;;;;;;5.88;1.48;;;;;;;;;;6249846;28;20057;-82
2021/08/07 12:55:07;;;;;;;2.65;1.20;;;;;;;;;;6201814;28;20062;-83
2021/08/07 12:58:21;;;;;;;2.90;1.00;;;;;;;;;;6211986;28;20049;-82
2021/08/07 13:01:23;;;;;;;3.90;1.27;;;;;;;;;;6245558;28;20045;-84
2021/08/07 13:04:45;;;;;;;5.00;1.20;;;;;;;;;;6250862;28;20045;-81
2021/08/07 13:07:47;;;;;;;2.05;1.00;;;;;;;;;;6226178;28;20054;-81
2021/08/07 13:10:49;;;;;;;3.55;1.42;;;;;;;;;;6212723;28;20098;-81
2021/08/07 13:13:55;;;;;;;3.88;1.27;;;;;;;;;;6243168;28;20065;-81
2021/08/07 13:16:57;;;;;;;2.22;1.10;;;;;;;;;;6238069;28;20072;-82
2021/08/07 13:20:00;;;;;;;2.57;1.20;;;;;;;;;;6262308;28;20053;-81
2021/08/07 13:23:02;;;;;;;4.97;1.42;;;;;;;;;;6263838;28;20443;-81
2021/08/07 13:26:08;;;;;;;2.90;1.20;;;;;;;;;;6241676;28;20806;-81
2021/08/07 13:29:21;;;;;;;3.85;1.25;;;;;;;;;;6254063;28;20553;-81
2021/08/07 13:32:25;;;;;;;4.53;1.67;;;;;;;;;;6259632;28;20041;-81
2021/08/07 13:35:27;;;;;;;3.42;1.20;;;;;;;;;;6258282;28;20069;-82
2021/08/07 13:38:30;;;;;;;3.50;1.38;;;;;;;;;;6258797;28;20045;-80
2021/08/07 13:41:39;;;;;;;5.18;1.55;;;;;;;;;;6257637;28;20072;-81
2021/08/07 13:44:41;;;;;;;4.20;1.23;;;;;;;;;;6248525;28;20087;-81
2021/08/07 13:47:42;;;;;;;4.47;1.20;;;;;;;;;;6240085;28;20057;-81
2021/08/07 13:50:44;;;;;;;2.58;1.33;;;;;;;;;;6243714;28;20097;-81
2021/08/07 13:53:46;;;;;;;2.25;1.13;;;;;;;;;;6241364;28;20427;-81
2021/08/07 13:56:48;;;;;;;3.70;1.20;;;;;;;;;;6257195;28;20048;-81
2021/08/07 13:59:49;;;;;;;5.43;1.45;;;;;;;;;;6254776;28;20499;-82
2021/08/07 14:02:51;;;;;;;4.13;1.20;;;;;;;;;;6253343;28;20071;-81
2021/08/07 14:05:54;;;;;;;3.55;1.23;;;;;;;;;;6243998;28;20048;-81
2021/08/07 14:08:59;;;;;;;3.10;1.25;;;;;;;;;;6229389;28;20065;-81
2021/08/07 14:12:01;;;;;;;2.33;1.05;;;;;;;;;;6226325;28;20045;-82
2021/08/07 14:15:06;;;;;;;3.63;1.20;;;;;;;;;;6227454;28;20088;-81
2021/08/07 14:18:09;;;;;;;2.65;1.00;;;;;;;;;;6228774;28;20410;-82
2021/08/07 14:21:13;;;;;;;3.05;1.13;;;;;;;;;;6228787;28;20054;-81
2021/08/07 14:24:17;;;;;;;4.60;1.10;;;;;;;;;;6228088;28;20049;-81
2021/08/07 14:27:18;;;;;;;4.47;1.27;;;;;;;;;;6237011;28;20109;-82
2021/08/07 14:30:21;;;;;;;2.22;1.10;;;;;;;;;;6245182;28;20092;-81
2021/08/07 14:33:23;;;;;;;4.03;1.20;;;;;;;;;;6251449;28;20108;-82
2021/08/07 14:36:26;;;;;;;2.17;0.95;;;;;;;;;;6234332;28;20062;-80
2021/08/07 14:39:27;;;;;;;2.35;1.00;;;;;;;;;;6226607;28;20058;-82
2021/08/07 14:42:29;;;;;;;4.55;1.20;;;;;;;;;;6227188;28;20097;-83
2021/08/07 14:45:31;;;;;;;2.25;0.90;;;;;;;;;;6227235;28;20126;-83
2021/08/07 14:48:33;;;;;;;2.97;1.00;;;;;;;;;;6235128;28;20097;-82
2021/08/07 14:51:35;;;;;;;4.22;1.08;;;;;;;;;;6233099;28;20048;-82
2021/08/07 14:54:38;;;;;;;3.58;1.40;;;;;;;;;;6233672;28;20045;-81
2021/08/07 14:57:40;;;;;;;1.10;0.90;;;;;;;;;;6245765;28;20140;-83
2021/08/07 15:00:41;;;;;;;2.23;1.00;;;;;;;;;;6250003;28;20053;-82
2021/08/07 15:03:43;;;;;;;2.80;1.13;;;;;;;;;;6251607;28;20120;-81
2021/08/07 15:06:44;;;;;;;5.45;1.30;;;;;;;;;;6249348;28;20112;-81
2021/08/07 15:09:46;;;;;;;2.27;1.30;;;;;;;;;;6256728;28;20040;-81
2021/08/07 15:12:48;;;;;;;2.42;0.90;;;;;;;;;;6246699;28;20113;-82
2021/08/07 15:15:50;;;;;;;;;;;;;;;;;;6244883;28;20038;-82
2021/08/07 15:18:52;;;;;;;2.28;1.02;;;;;;;;;;6254735;28;19932;-83
2021/08/07 15:21:54;;;;;;;2.37;1.17;;;;;;;;;;6236281;28;20053;-81
2021/08/07 15:24:56;;;;;;;2.13;0.90;;;;;;;;;;6208539;28;20052;-81
2021/08/07 15:27:58;;;;;;;2.58;0.98;;;;;;;;;;6228807;28;20054;-83
2021/08/07 15:30:59;;;;;;;3.22;1.13;;;;;;;;;;6230914;28;20562;-83
2021/08/07 15:34:01;;;;;;;2.03;1.02;;;;;;;;;;6232032;28;20514;-82
2021/08/07 15:37:03;;;;;;;2.57;1.00;;;;;;;;;;6231833;28;20065;-82
2021/08/07 15:40:06;;;;;;;3.13;1.20;;;;;;;;;;6226968;28;20037;-83
2021/08/07 15:43:09;;;;;;;2.17;1.05;;;;;;;;;;6238430;28;20113;-82
2021/08/07 15:46:11;;;;;;;2.17;1.05;;;;;;;;;;6230266;28;20064;-83
2021/08/07 15:49:13;;;;;;;1.43;1.00;;;;;;;;;;6228736;28;20140;-82
2021/08/07 15:52:14;;;;;;;3.17;1.40;;;;;;;;;;6209973;28;20034;-81
2021/08/07 15:55:16;;;;;;;3.97;0.97;;;;;;;;;;6252609;28;20062;-82
2021/08/07 15:58:18;;;;;;;2.10;0.90;;;;;;;;;;6242112;28;20073;-82
2021/08/07 16:01:20;;;;;;;1.27;0.80;;;;;;;;;;6223005;28;20065;-82
2021/08/07 16:04:22;;;;;;;2.73;1.13;;;;;;;;;;6230466;28;20046;-82
2021/08/07 16:07:24;;;;;;;3.85;1.30;;;;;;;;;;6250480;28;20457;-82
2021/08/07 16:10:27;;;;;;;2.55;1.00;;;;;;;;;;6231817;28;20618;-82
2021/08/07 16:13:28;;;;;;;1.58;1.00;;;;;;;;;;6248410;28;20560;-82
2021/08/07 16:16:31;;;;;;;1.38;0.95;;;;;;;;;;6221874;28;20201;-82
2021/08/07 16:19:32;;;;;;;2.53;1.00;;;;;;;;;;6189026;28;20125;-81
2021/08/07 16:22:35;;;;;;;3.63;1.13;;;;;;;;;;6228019;28;20487;-81
2021/08/07 16:25:36;;;;;;;1.15;1.00;;;;;;;;;;6253951;28;20123;-81
2021/08/07 16:28:38;;;;;;;4.10;1.15;;;;;;;;;;6255477;28;20073;-82
2021/08/07 16:31:40;;;;;;;3.08;1.20;;;;;;;;;;6211007;28;20065;-81
2021/08/07 16:34:42;;;;;;;2.30;1.27;;;;;;;;;;6230853;28;20117;-82
2021/08/07 16:37:43;;;;;;;2.55;1.20;;;;;;;;;;6253569;28;20113;-82
2021/08/07 16:40:46;;;;;;;2.53;1.30;;;;;;;;;;6254874;28;20117;-83
2021/08/07 16:43:47;;;;;;;3.63;1.13;;;;;;;;;;6237415;28;20045;-82
2021/08/07 16:46:49;;;;;;;4.38;1.20;;;;;;;;;;6257054;28;20085;-82
2021/08/07 16:49:52;;;;;;;1.90;1.15;;;;;;;;;;6257111;28;20067;-82
2021/08/07 16:52:54;;;;;;;;;;;;;;;;;;6236375;28;20053;-82
2021/08/07 16:55:55;;;;;;;2.35;1.20;;;;;;;;;;6244612;28;19925;-82
2021/08/07 16:58:57;;;;;;;2.55;1.10;;;;;;;;;;6249608;28;20124;-84
2021/08/07 17:01:59;;;;;;;3.08;1.55;;;;;;;;;;6247624;28;20120;-83
2021/08/07 17:05:00;;;;;;;4.50;1.90;;;;;;;;;;6248917;28;20868;-80
2021/08/07 17:08:02;;;;;;;3.80;1.30;;;;;;;;;;6248446;28;20107;-81
2021/08/07 17:11:04;;;;;;;3.38;1.13;;;;;;;;;;6254350;28;20053;-81
2021/08/07 17:14:07;;;;;;;2.10;1.23;;;;;;;;;;6255171;28;20045;-81
2021/08/07 17:17:13;;;;;;;2.33;1.10;;;;;;;;;;6249355;28;20049;-81
2021/08/07 17:20:15;;;;;;;2.50;1.00;;;;;;;;;;6234930;28;20060;-81
2021/08/07 17:23:17;;;;;;;1.30;1.05;;;;;;;;;;6253760;28;20080;-82
2021/08/07 17:26:18;;;;;;;3.70;1.52;;;;;;;;;;6234158;28;20042;-81
2021/08/07 17:29:20;;;;;;;1.63;1.10;;;;;;;;;;6232170;28;20045;-81
2021/08/07 17:32:22;;;;;;;5.20;1.30;;;;;;;;;;6252604;28;20076;-81
2021/08/07 17:35:24;;;;;;;2.90;1.85;;;;;;;;;;6250039;28;20105;-81
2021/08/07 17:38:25;;;;;;;5.37;1.50;;;;;;;;;;6247804;28;20052;-84
2021/08/07 17:41:27;;;;;;;2.15;1.23;;;;;;;;;;6231571;28;20061;-82
2021/08/07 17:44:30;;;;;;;2.17;1.10;;;;;;;;;;6223469;28;20101;-82
2021/08/07 17:47:32;;;;;;;2.55;1.23;;;;;;;;;;6208723;28;20089;-83
2021/08/07 17:50:35;;;;;;;3.88;1.27;;;;;;;;;;6219039;28;20522;-82
2021/08/07 17:53:37;;;;;;;3.00;1.40;;;;;;;;;;6233712;28;20102;-83
2021/08/07 17:56:40;;;;;;;3.92;1.50;;;;;;;;;;6232245;28;20114;-82
2021/08/07 17:59:41;;;;;;;2.53;1.42;;;;;;;;;;6253219;28;20041;-82
2021/08/07 18:02:43;;;;;;;3.60;1.60;;;;;;;;;;6232217;28;20053;-83
2021/08/07 18:05:46;;;;;;;3.05;1.70;;;;;;;;;;6230189;28;20037;-82
2021/08/07 18:08:48;;;;;;;2.28;1.50;;;;;;;;;;6232941;28;20049;-83
2021/08/07 18:11:50;;;;;;;2.28;1.52;;;;;;;;;;6233166;28;20109;-82
2021/08/07 18:14:51;;;;;;;3.78;1.52;;;;;;;;;;6232320;28;20105;-82
2021/08/07 18:17:53;;;;;;;2.58;1.40;;;;;;;;;;6231906;28;20057;-82
2021/08/07 18:20:55;;;;;;;3.92;1.70;;;;;;;;;;6256599;28;20042;-81
2021/08/07 18:23:57;;;;;;;1.45;1.33;;;;;;;;;;6256202;28;20112;-81
2021/08/07 18:26:59;;;;;;;1.67;1.20;;;;;;;;;;6255851;28;20105;-81
2021/08/07 18:30:03;;;;;;;2.60;1.20;;;;;;;;;;6237631;28;20470;-81
2021/08/07 18:33:05;;;;;;;1.63;0.90;;;;;;;;;;6232277;28;20046;-82